Amston, CT (06231)

5:45 PM EDT on October 20, 2014 (GMT -0400)
Amston | Change Station
CLOSE
Current Station
Personal Weather Station
Location: Amston, CT
Elevation: 459 ft
Nearby Weather Stations

Elev 459 ft 41.64 °N, 72.36 °W | Updated 5 minutes ago

Partly Cloudy
Partly Cloudy
51.6 °F
Feels Like 51.6 °F
N
0.0
Wind Variable Wind from NNE
Gusts 0.0 mph

Today
High -- | Low -- °F
--% Chance of Precip.
Yesterday
High -- | Low -- °F
Precip. -- in
7:07 AM 6:00 PM
Waning Crescent, 9% visible
Pressure 30.00 in
Visibility 10.0 miles
Clouds Few 11000 ft
Dew Point 42 °F
Humidity 69%
Rainfall 0.00 in
Snow Depth Not available.
UV 1 out of 12
Pollen .90 out of 12
Ozone Good
Flu Activity Sporadic
METAR KIJD 202052Z AUTO 24006KT 10SM FEW110 13/03 A3000 RMK AO2 SLP158 T01280028 56007

More Conditions Fewer Conditions

Pressure 30.00 in
Visibility 10.0 miles
Clouds Few 11000 ft
Dew Point 42 °F
Humidity 69%
Rainfall 0.00 in
Snow Depth Not available.
UV 1 out of 12
Pollen .90 out of 12
Ozone Good
Flu Activity Sporadic
METAR KIJD 202052Z AUTO 24006KT 10SM FEW110 13/03 A3000 RMK AO2 SLP158 T01280028 56007

More Conditions Fewer Conditions

10-Day Weather Forecast

Almanac

Astronomy

Oct. 20, 2014 Rise Set
Actual Time 7:07 AM EDT 6:00 PM EDT
Civil Twilight 6:39 AM EDT 6:28 PM EDT
Nautical Twilight 6:06 AM EDT 7:01 PM EDT
Astronomical Twilight 5:34 AM EDT 7:33 PM EDT
Moon 3:50 AM EDT 4:23 PM EDT
Length of Visible Light 11h 49m
Length of Day
10h 53m
Waning Crescent, 9% of the Moon is Illuminated
Today
Waning Crescent
Oct 23
New
Oct 30
First Quarter
Nov 6
Full
Nov 14
Last Quarter

Today's Extremes

State Highs State Lows

Community

WunderPhotos

Upload Photos

1,763,527 photos uploaded!

WunderBlogs® & News

Nearby

Air Quality

  Air Quality AQ Index Pollutant
Yesterday Good
OZONE
Current Good
OZONE
Monday Good
PM2.5

Snow Depth

Station Depth Elevation
No new snow has been reported.

Earthquake Activity

City Distance Mag. Time & Date
No recent earthquake activity has been reported nearby.
Minimum magnitude displayed is 2.5.

Coastal Water Temperatures

Place Temperature
New London, CT 64.0 °F
Newport, RI 61.0 °F
Quonset Point, RI 62.1 °F
Conimicut Light, RI 61.0 °F
Providence, RI 62.1 °F

Nearby Weather Stations